N0,26 Fumimaru — JK5398 — position and weather

sailwx.info

Track history (hours):
 
Tides and Currents Weather Stations Pressure Air Temp Water Temp Dewpoint Dewpoint Depression Visibility Wind Speed Wind Dir Waves Ship Positions

N0,26 Fumimaru

Last reported at 2018-Apr-23 00:31 UTC. Time now 2018-Apr-26 22:42 UTC.
Position N 41°35' E 140°31'.

Length 39 m.

Type: Ship. MMSI: 431400427.

Date/timePositionNaut miles runAvg speedWind from/ knotsBaromVisibWave heightAir tempDewpointWater temp
2018-Apr-23 00:31N 41°35' E 140°31'112.0
2018-Apr-23 00:27N 41°35' E 140°32'511.7
2018-Apr-23 00:00N 41°40' E 140°35'611.3
2018-Apr-22 23:30N 41°45' E 140°39'4 7.2
2018-Apr-22 23:00N 41°47' E 140°43'0 0.3
2018-Apr-22 22:30N 41°47' E 140°43'0 0.0
2018-Apr-22 22:00N 41°47' E 140°43'0 0.1
2018-Apr-22 21:30N 41°47' E 140°43'0 0.1
2018-Apr-22 21:00N 41°47' E 140°43'0 0.0
2018-Apr-22 20:30N 41°47' E 140°43'0 0.0
2018-Apr-22 20:00N 41°47' E 140°43'0 0.0
2018-Apr-22 19:30N 41°47' E 140°43'0 0.0
2018-Apr-22 19:00N 41°47' E 140°43'0 0.0
2018-Apr-22 18:27N 41°47' E 140°43'0 0.2
2018-Apr-22 18:00N 41°47' E 140°43'0 0.2
2018-Apr-22 17:30N 41°47' E 140°43'0 0.1
2018-Apr-22 17:00N 41°47' E 140°43'0 0.0
2018-Apr-22 16:30N 41°47' E 140°43'0 0.0
2018-Apr-22 16:00N 41°47' E 140°43'0 0.1
2018-Apr-22 15:30N 41°47' E 140°43'0 0.1
2018-Apr-22 15:00N 41°47' E 140°43'0 0.1
2018-Apr-22 14:30N 41°47' E 140°43'0 0.0
2018-Apr-22 14:00N 41°47' E 140°43'0 0.1
2018-Apr-22 13:30N 41°47' E 140°43'0 0.0
2018-Apr-22 13:00N 41°47' E 140°43'0 0.0
2018-Apr-22 12:30N 41°47' E 140°43'0 0.0
2018-Apr-22 12:00N 41°47' E 140°43'0 0.1
2018-Apr-22 11:30N 41°47' E 140°43'0 0.1
2018-Apr-22 11:00N 41°47' E 140°43'0 0.0
2018-Apr-22 10:30N 41°47' E 140°43'1 2.3
2018-Apr-22 10:00N 41°47' E 140°41'5 9.8
2018-Apr-22 09:29N 41°42' E 140°44'510.5
2018-Apr-22 09:00N 41°39' E 140°49'4 7.9
2018-Apr-22 08:30N 41°37' E 140°53'510.2
2018-Apr-22 08:00N 41°34' E 140°59'5 9.3
2018-Apr-22 07:30N 41°32' E 141°04'4 8.8
2018-Apr-22 07:00N 41°31' E 141°10'396 8.9
2018-Apr-20 10:24N 35°00' E 139°44'410.5
2018-Apr-20 10:00N 35°04' E 139°44'511.0
2018-Apr-20 09:30N 35°10' E 139°45'510.4
2018-Apr-20 09:00N 35°15' E 139°45'4 8.4
2018-Apr-20 08:29N 35°17' E 139°41'0 0.6
2018-Apr-20 08:00N 35°17' E 139°41'0 0.0
2018-Apr-20 07:24N 35°17' E 139°41'0 0.0
2018-Apr-20 06:57N 35°17' E 139°41'0 0.0
2018-Apr-20 06:30N 35°17' E 139°41'0 0.0
2018-Apr-20 06:00N 35°17' E 139°41'0 0.0
2018-Apr-20 05:27N 35°17' E 139°41'0 0.0
2018-Apr-20 04:51N 35°17' E 139°41'0 0.0
2018-Apr-20 04:30N 35°17' E 139°41'0 0.0
2018-Apr-20 03:57N 35°17' E 139°41'0 0.0
2018-Apr-20 03:21N 35°17' E 139°41'0 0.0
2018-Apr-20 02:51N 35°17' E 139°41'0 0.0
2018-Apr-20 02:30N 35°17' E 139°41'0 0.0
2018-Apr-20 02:00N 35°17' E 139°41'0 0.0
2018-Apr-20 01:30N 35°17' E 139°41'0 0.0
2018-Apr-20 01:00N 35°17' E 139°41'0 0.0
2018-Apr-20 00:30N 35°17' E 139°41'0 0.0
2018-Apr-19 23:57N 35°17' E 139°41'0 0.0
2018-Apr-19 23:30N 35°17' E 139°41'0 0.0
2018-Apr-19 22:48N 35°17' E 139°41'0 0.0
2018-Apr-19 22:24N 35°17' E 139°41'0 0.0
2018-Apr-19 22:00N 35°17' E 139°41'0 0.0
2018-Apr-19 21:27N 35°17' E 139°41'0 0.0
2018-Apr-19 20:57N 35°17' E 139°41'0 0.0
2018-Apr-19 20:30N 35°17' E 139°41'0 0.0
2018-Apr-19 20:00N 35°17' E 139°41'0 0.0
2018-Apr-19 19:27N 35°17' E 139°41'0 0.0
2018-Apr-19 19:00N 35°17' E 139°41'0 0.0
2018-Apr-19 18:30N 35°17' E 139°41'0 0.0
2018-Apr-19 17:57N 35°17' E 139°41'0 0.0
2018-Apr-19 17:30N 35°17' E 139°41'0 0.0
2018-Apr-19 16:57N 35°17' E 139°41'0 0.0
2018-Apr-19 16:21N 35°17' E 139°41'0 0.0
2018-Apr-19 15:57N 35°17' E 139°41'0 0.0
2018-Apr-19 15:30N 35°17' E 139°41'0 0.0
2018-Apr-19 14:45N 35°17' E 139°41'0 0.0
2018-Apr-19 14:27N 35°17' E 139°41'0 0.0
2018-Apr-19 14:00N 35°17' E 139°41'0 0.0
2018-Apr-19 13:30N 35°17' E 139°41'0 0.0
2018-Apr-19 13:00N 35°17' E 139°41'0 0.0
2018-Apr-19 12:27N 35°17' E 139°41'0 0.0
2018-Apr-19 12:00N 35°17' E 139°41'0 0.0
2018-Apr-19 11:27N 35°17' E 139°41'0 0.0
2018-Apr-19 11:00N 35°17' E 139°41'0 0.0
2018-Apr-19 10:24N 35°17' E 139°41'0 0.0
2018-Apr-19 09:57N 35°17' E 139°41'0 0.0
2018-Apr-19 09:27N 35°17' E 139°41'0 0.0
2018-Apr-19 09:00N 35°17' E 139°41'0 0.0
2018-Apr-19 08:30N 35°17' E 139°41'0 0.0
2018-Apr-19 07:57N 35°17' E 139°41'0 0.0
2018-Apr-19 07:27N 35°17' E 139°41'0 0.0
2018-Apr-19 07:00N 35°17' E 139°41'0 0.0
2018-Apr-19 06:27N 35°17' E 139°41'0 0.0
2018-Apr-19 05:57N 35°17' E 139°41'0 0.0
2018-Apr-19 05:27N 35°17' E 139°41'0 0.0
2018-Apr-19 04:57N 35°17' E 139°41'0 0.0
2018-Apr-19 04:27N 35°17' E 139°41'0 0.0
2018-Apr-19 03:57N 35°17' E 139°41'0 0.0
2018-Apr-19 03:30N 35°17' E 139°41'0 0.0
2018-Apr-19 03:00N 35°17' E 139°41'0 0.0
2018-Apr-19 02:21N 35°17' E 139°41'0 0.0
2018-Apr-19 01:57N 35°17' E 139°41'0 0.0
2018-Apr-19 01:30N 35°17' E 139°41'0 0.0
2018-Apr-19 01:00N 35°17' E 139°41'0 0.3
2018-Apr-19 00:28N 35°17' E 139°41'4 8.3
2018-Apr-19 00:00N 35°16' E 139°45'5 9.7
2018-Apr-18 23:30N 35°11' E 139°44'610.8
2018-Apr-18 22:55N 35°05' E 139°41'510.7
2018-Apr-18 22:30N 35°02' E 139°37'132 5.8
2018-Apr-17 23:41N 34°51' E 136°57'2 9.3
2018-Apr-17 23:30N 34°53' E 136°58'0 0.0
2018-Apr-17 22:47N 34°53' E 136°58'1 2.6
2018-Apr-17 22:30N 34°52' E 136°58'1 2.1
2018-Apr-17 22:00N 34°51' E 136°57'1 2.2
2018-Apr-17 21:27N 34°50' E 136°57'137 3.3
2018-Apr-16 03:32N 35°05' E 139°42'0 4.5
2018-Apr-16 03:28N 35°05' E 139°43'2 5.0
2018-Apr-16 03:00N 35°07' E 139°44'2 4.7
2018-Apr-16 02:30N 35°09' E 139°45'3 5.3
2018-Apr-16 02:00N 35°12' E 139°46'2 4.0
2018-Apr-16 01:28N 35°14' E 139°46'2 4.5
2018-Apr-16 00:59N 35°16' E 139°46'2 4.9
2018-Apr-16 00:30N 35°18' E 139°44'2 4.3
2018-Apr-16 00:00N 35°20' E 139°42'3 4.9
2018-Apr-15 23:28N 35°22' E 139°42'2 5.1
2018-Apr-15 23:00N 35°25' E 139°42'1 1.3
2018-Apr-15 22:30N 35°25' E 139°41'0 0.2
2018-Apr-15 21:59N 35°25' E 139°41'0 0.3
2018-Apr-15 21:30N 35°25' E 139°41'0 0.2
2018-Apr-15 20:58N 35°25' E 139°41'0 0.0
2018-Apr-15 20:28N 35°25' E 139°41'0 0.2
2018-Apr-15 19:57N 35°25' E 139°41'2 4.0
2018-Apr-15 19:30N 35°24' E 139°42'4 7.8
2018-Apr-15 19:00N 35°20' E 139°42'3 5.4
2018-Apr-15 18:27N 35°17' E 139°41'0 0.0
2018-Apr-15 17:51N 35°17' E 139°41'0 0.0
2018-Apr-15 17:06N 35°17' E 139°41'0 0.0
2018-Apr-15 17:00N 35°17' E 139°41'0 0.0
2018-Apr-15 16:24N 35°17' E 139°41'0 0.0
2018-Apr-15 15:39N 35°17' E 139°41'0 0.0
2018-Apr-15 15:30N 35°17' E 139°41'0 0.0
2018-Apr-15 15:00N 35°17' E 139°41'0 0.0
2018-Apr-15 14:30N 35°17' E 139°41'0 0.0
2018-Apr-15 14:00N 35°17' E 139°41'0 0.0
2018-Apr-15 13:27N 35°17' E 139°41'0 0.0
2018-Apr-15 13:00N 35°17' E 139°41'0 0.0
2018-Apr-15 11:45N 35°17' E 139°41'0 0.0
2018-Apr-15 11:21N 35°17' E 139°41'0 0.0
2018-Apr-15 10:51N 35°17' E 139°41'0 0.0
2018-Apr-15 10:27N 35°17' E 139°41'0 0.0
2018-Apr-15 09:51N 35°17' E 139°41'0 0.0
2018-Apr-15 09:30N 35°17' E 139°41'0 0.0
2018-Apr-15 08:57N 35°17' E 139°41'0 0.0
2018-Apr-15 08:12N 35°17' E 139°41'0 0.0
2018-Apr-15 07:57N 35°17' E 139°41'0 0.0
2018-Apr-15 07:27N 35°17' E 139°41'0 0.0
2018-Apr-15 06:51N 35°17' E 139°41'0 0.0
2018-Apr-15 06:27N 35°17' E 139°41'0 0.0
2018-Apr-15 05:54N 35°17' E 139°41'0 0.0
2018-Apr-15 05:06N 35°17' E 139°41'0 0.0
2018-Apr-15 04:51N 35°17' E 139°41'0 0.0
2018-Apr-15 04:30N 35°17' E 139°41'0 0.0
2018-Apr-15 04:00N 35°17' E 139°41'0 0.0
2018-Apr-15 03:30N 35°17' E 139°41'0 0.0
2018-Apr-15 02:57N 35°17' E 139°41'0 0.0
2018-Apr-15 02:30N 35°17' E 139°41'0 0.0
2018-Apr-15 02:00N 35°17' E 139°41'0 0.0
2018-Apr-15 01:30N 35°17' E 139°41'0 0.0
2018-Apr-15 01:00N 35°17' E 139°41'0 0.0
2018-Apr-15 00:24N 35°17' E 139°41'0 0.0
2018-Apr-15 00:00N 35°17' E 139°41'0 0.0
2018-Apr-14 23:30N 35°17' E 139°41'0 0.0
2018-Apr-14 23:00N 35°17' E 139°41'0 0.0
2018-Apr-14 22:27N 35°17' E 139°41'0 0.0
2018-Apr-14 21:54N 35°17' E 139°41'0 0.0
2018-Apr-14 21:24N 35°17' E 139°41'0 0.0
2018-Apr-14 20:54N 35°17' E 139°41'0 0.0
2018-Apr-14 20:30N 35°17' E 139°41'0 0.0
2018-Apr-14 19:51N 35°17' E 139°41'0 0.0
2018-Apr-14 19:30N 35°17' E 139°41'0 0.0
2018-Apr-14 18:57N 35°17' E 139°41'0 0.0
2018-Apr-14 18:30N 35°17' E 139°41'0 0.0
2018-Apr-14 18:00N 35°17' E 139°41'0 0.0
2018-Apr-14 17:27N 35°17' E 139°41'0 0.0
2018-Apr-14 16:57N 35°17' E 139°41'0 0.0
2018-Apr-14 16:27N 35°17' E 139°41'0 0.0
2018-Apr-14 15:45N 35°17' E 139°41'0 0.0
2018-Apr-14 15:30N 35°17' E 139°41'0 0.0
2018-Apr-14 15:00N 35°17' E 139°41'0 0.0
2018-Apr-14 14:30N 35°17' E 139°41'0 0.0
2018-Apr-14 13:57N 35°17' E 139°41'0 0.0
2018-Apr-14 13:30N 35°17' E 139°41'0 0.0
2018-Apr-14 12:54N 35°17' E 139°41'0 0.0
2018-Apr-14 12:30N 35°17' E 139°41'0 0.0
2018-Apr-14 11:57N 35°17' E 139°41'0 0.0
2018-Apr-14 11:30N 35°17' E 139°41'0 0.0
2018-Apr-14 10:48N 35°17' E 139°41'0 0.0
2018-Apr-14 10:30N 35°17' E 139°41'0 0.0
2018-Apr-14 10:00N 35°17' E 139°41'0 0.0
2018-Apr-14 08:57N 35°17' E 139°41'0 0.0
2018-Apr-14 08:06N 35°17' E 139°41'0 0.0
2018-Apr-14 07:57N 35°17' E 139°41'0 0.0
2018-Apr-14 07:24N 35°17' E 139°41'0 0.0
2018-Apr-14 06:51N 35°17' E 139°41'0 0.0
2018-Apr-14 06:27N 35°17' E 139°41'0 0.0
2018-Apr-14 05:57N 35°17' E 139°41'0 0.0
2018-Apr-14 05:27N 35°17' E 139°41'0 0.0
2018-Apr-14 04:54N 35°17' E 139°41'0 0.0
2018-Apr-14 04:27N 35°17' E 139°41'0 0.0
2018-Apr-14 04:00N 35°17' E 139°41'0 0.0
2018-Apr-14 03:30N 35°17' E 139°41'0 0.0
2018-Apr-14 02:57N 35°17' E 139°41'0 0.0
2018-Apr-14 02:24N 35°17' E 139°41'0 0.0
2018-Apr-14 02:00N 35°17' E 139°41'0 0.0
2018-Apr-14 01:18N 35°17' E 139°41'0 0.0
2018-Apr-14 00:57N 35°17' E 139°41'0 0.0
2018-Apr-14 00:27N 35°17' E 139°41'0 0.0
2018-Apr-13 23:57N 35°17' E 139°41'0 0.0
2018-Apr-13 23:27N 35°17' E 139°41'0 0.0
2018-Apr-13 22:57N 35°17' E 139°41'0 0.0
2018-Apr-13 22:27N 35°17' E 139°41'0 0.0
2018-Apr-13 21:57N 35°17' E 139°41'0 0.0
2018-Apr-13 21:27N 35°17' E 139°41'0 0.0
2018-Apr-13 20:54N 35°17' E 139°41'0 0.0
2018-Apr-13 20:21N 35°17' E 139°41'0 0.0
2018-Apr-13 19:57N 35°17' E 139°41'0 0.0
2018-Apr-13 19:18N 35°17' E 139°41'0 0.0
2018-Apr-13 18:48N 35°17' E 139°41'0 0.0
2018-Apr-13 18:24N 35°17' E 139°41'0 0.0
2018-Apr-13 18:00N 35°17' E 139°41'0 0.0
2018-Apr-13 17:27N 35°17' E 139°41'0 0.0
2018-Apr-13 17:00N 35°17' E 139°41'0 0.0
2018-Apr-13 16:27N 35°17' E 139°41'0 0.0
2018-Apr-13 15:57N 35°17' E 139°41'0 0.0
2018-Apr-13 15:30N 35°17' E 139°41'0 0.0
2018-Apr-13 14:57N 35°17' E 139°41'0 0.0
2018-Apr-13 14:15N 35°17' E 139°41'0 0.0
2018-Apr-13 13:57N 35°17' E 139°41'0 0.0
2018-Apr-13 13:27N 35°17' E 139°41'0 0.0
2018-Apr-13 12:51N 35°17' E 139°41'0 0.0
2018-Apr-13 12:27N 35°17' E 139°41'0 0.0
2018-Apr-13 12:00N 35°17' E 139°41'0 0.0
2018-Apr-13 11:27N 35°17' E 139°41'0 0.0
2018-Apr-13 10:45N 35°17' E 139°41'0 0.0
2018-Apr-13 10:15N 35°17' E 139°41'0 0.0
2018-Apr-13 09:57N 35°17' E 139°41'0 0.0
2018-Apr-13 09:27N 35°17' E 139°41'0 0.0
2018-Apr-13 08:57N 35°17' E 139°41'0 0.0
2018-Apr-13 08:30N 35°17' E 139°41'0 0.0
2018-Apr-13 08:00N 35°17' E 139°41'0 0.0
2018-Apr-13 07:27N 35°17' E 139°41'0 0.0
2018-Apr-13 06:57N 35°17' E 139°41'0 0.0
2018-Apr-13 06:27N 35°17' E 139°41'0 0.0
2018-Apr-13 05:57N 35°17' E 139°41'0 0.0
2018-Apr-13 05:21N 35°17' E 139°41'0 0.0
2018-Apr-13 05:00N 35°17' E 139°41'0 0.0
2018-Apr-13 04:30N 35°17' E 139°41'0 0.0
2018-Apr-13 03:51N 35°17' E 139°41'0 0.0
2018-Apr-13 03:27N 35°17' E 139°41'0 0.0
2018-Apr-13 02:55N 35°17' E 139°41'0 0.0
2018-Apr-13 02:28N 35°17' E 139°41'0 0.0
2018-Apr-13 01:55N 35°17' E 139°41'  
Track history (hours):
 
Tides and Currents Weather Stations Pressure Air Temp Water Temp Dewpoint Dewpoint Depression Visibility Wind Speed Wind Dir Waves Ship Positions

N0,26 Fumimaru

Last reported at 2018-Apr-23 00:31 UTC. Time now 2018-Apr-26 22:42 UTC.
Position N 41°35' E 140°31'.

Length 39 m.

Type: Ship. MMSI: 431400427.

Date/timePositionNaut miles runAvg speedWind from/ knotsBaromVisibWave heightAir tempDewpointWater temp
2018-Apr-23 00:31N 41°35' E 140°31'112.0
2018-Apr-23 00:27N 41°35' E 140°32'511.7
2018-Apr-23 00:00N 41°40' E 140°35'611.3
2018-Apr-22 23:30N 41°45' E 140°39'4 7.2
2018-Apr-22 23:00N 41°47' E 140°43'0 0.3
2018-Apr-22 22:30N 41°47' E 140°43'0 0.0
2018-Apr-22 22:00N 41°47' E 140°43'0 0.1
2018-Apr-22 21:30N 41°47' E 140°43'0 0.1
2018-Apr-22 21:00N 41°47' E 140°43'0 0.0
2018-Apr-22 20:30N 41°47' E 140°43'0 0.0
2018-Apr-22 20:00N 41°47' E 140°43'0 0.0
2018-Apr-22 19:30N 41°47' E 140°43'0 0.0
2018-Apr-22 19:00N 41°47' E 140°43'0 0.0
2018-Apr-22 18:27N 41°47' E 140°43'0 0.2
2018-Apr-22 18:00N 41°47' E 140°43'0 0.2
2018-Apr-22 17:30N 41°47' E 140°43'0 0.1
2018-Apr-22 17:00N 41°47' E 140°43'0 0.0
2018-Apr-22 16:30N 41°47' E 140°43'0 0.0
2018-Apr-22 16:00N 41°47' E 140°43'0 0.1
2018-Apr-22 15:30N 41°47' E 140°43'0 0.1
2018-Apr-22 15:00N 41°47' E 140°43'0 0.1
2018-Apr-22 14:30N 41°47' E 140°43'0 0.0
2018-Apr-22 14:00N 41°47' E 140°43'0 0.1
2018-Apr-22 13:30N 41°47' E 140°43'0 0.0
2018-Apr-22 13:00N 41°47' E 140°43'0 0.0
2018-Apr-22 12:30N 41°47' E 140°43'0 0.0
2018-Apr-22 12:00N 41°47' E 140°43'0 0.1
2018-Apr-22 11:30N 41°47' E 140°43'0 0.1
2018-Apr-22 11:00N 41°47' E 140°43'0 0.0
2018-Apr-22 10:30N 41°47' E 140°43'1 2.3
2018-Apr-22 10:00N 41°47' E 140°41'5 9.8
2018-Apr-22 09:29N 41°42' E 140°44'510.5
2018-Apr-22 09:00N 41°39' E 140°49'4 7.9
2018-Apr-22 08:30N 41°37' E 140°53'510.2
2018-Apr-22 08:00N 41°34' E 140°59'5 9.3
2018-Apr-22 07:30N 41°32' E 141°04'4 8.8
2018-Apr-22 07:00N 41°31' E 141°10'396 8.9
2018-Apr-20 10:24N 35°00' E 139°44'410.5
2018-Apr-20 10:00N 35°04' E 139°44'511.0
2018-Apr-20 09:30N 35°10' E 139°45'510.4
2018-Apr-20 09:00N 35°15' E 139°45'4 8.4
2018-Apr-20 08:29N 35°17' E 139°41'0 0.6
2018-Apr-20 08:00N 35°17' E 139°41'0 0.0
2018-Apr-20 07:24N 35°17' E 139°41'0 0.0
2018-Apr-20 06:57N 35°17' E 139°41'0 0.0
2018-Apr-20 06:30N 35°17' E 139°41'0 0.0
2018-Apr-20 06:00N 35°17' E 139°41'0 0.0
2018-Apr-20 05:27N 35°17' E 139°41'0 0.0
2018-Apr-20 04:51N 35°17' E 139°41'0 0.0
2018-Apr-20 04:30N 35°17' E 139°41'0 0.0
2018-Apr-20 03:57N 35°17' E 139°41'0 0.0
2018-Apr-20 03:21N 35°17' E 139°41'0 0.0
2018-Apr-20 02:51N 35°17' E 139°41'0 0.0
2018-Apr-20 02:30N 35°17' E 139°41'0 0.0
2018-Apr-20 02:00N 35°17' E 139°41'0 0.0
2018-Apr-20 01:30N 35°17' E 139°41'0 0.0
2018-Apr-20 01:00N 35°17' E 139°41'0 0.0
2018-Apr-20 00:30N 35°17' E 139°41'0 0.0
2018-Apr-19 23:57N 35°17' E 139°41'0 0.0
2018-Apr-19 23:30N 35°17' E 139°41'0 0.0
2018-Apr-19 22:48N 35°17' E 139°41'0 0.0
2018-Apr-19 22:24N 35°17' E 139°41'0 0.0
2018-Apr-19 22:00N 35°17' E 139°41'0 0.0
2018-Apr-19 21:27N 35°17' E 139°41'0 0.0
2018-Apr-19 20:57N 35°17' E 139°41'0 0.0
2018-Apr-19 20:30N 35°17' E 139°41'0 0.0
2018-Apr-19 20:00N 35°17' E 139°41'0 0.0
2018-Apr-19 19:27N 35°17' E 139°41'0 0.0
2018-Apr-19 19:00N 35°17' E 139°41'0 0.0
2018-Apr-19 18:30N 35°17' E 139°41'0 0.0
2018-Apr-19 17:57N 35°17' E 139°41'0 0.0
2018-Apr-19 17:30N 35°17' E 139°41'0 0.0
2018-Apr-19 16:57N 35°17' E 139°41'0 0.0
2018-Apr-19 16:21N 35°17' E 139°41'0 0.0
2018-Apr-19 15:57N 35°17' E 139°41'0 0.0
2018-Apr-19 15:30N 35°17' E 139°41'0 0.0
2018-Apr-19 14:45N 35°17' E 139°41'0 0.0
2018-Apr-19 14:27N 35°17' E 139°41'0 0.0
2018-Apr-19 14:00N 35°17' E 139°41'0 0.0
2018-Apr-19 13:30N 35°17' E 139°41'0 0.0
2018-Apr-19 13:00N 35°17' E 139°41'0 0.0
2018-Apr-19 12:27N 35°17' E 139°41'0 0.0
2018-Apr-19 12:00N 35°17' E 139°41'0 0.0
2018-Apr-19 11:27N 35°17' E 139°41'0 0.0
2018-Apr-19 11:00N 35°17' E 139°41'0 0.0
2018-Apr-19 10:24N 35°17' E 139°41'0 0.0
2018-Apr-19 09:57N 35°17' E 139°41'0 0.0
2018-Apr-19 09:27N 35°17' E 139°41'0 0.0
2018-Apr-19 09:00N 35°17' E 139°41'0 0.0
2018-Apr-19 08:30N 35°17' E 139°41'0 0.0
2018-Apr-19 07:57N 35°17' E 139°41'0 0.0
2018-Apr-19 07:27N 35°17' E 139°41'0 0.0
2018-Apr-19 07:00N 35°17' E 139°41'0 0.0
2018-Apr-19 06:27N 35°17' E 139°41'0 0.0
2018-Apr-19 05:57N 35°17' E 139°41'0 0.0
2018-Apr-19 05:27N 35°17' E 139°41'0 0.0
2018-Apr-19 04:57N 35°17' E 139°41'0 0.0
2018-Apr-19 04:27N 35°17' E 139°41'0 0.0
2018-Apr-19 03:57N 35°17' E 139°41'0 0.0
2018-Apr-19 03:30N 35°17' E 139°41'0 0.0
2018-Apr-19 03:00N 35°17' E 139°41'0 0.0
2018-Apr-19 02:21N 35°17' E 139°41'0 0.0
2018-Apr-19 01:57N 35°17' E 139°41'0 0.0
2018-Apr-19 01:30N 35°17' E 139°41'0 0.0
2018-Apr-19 01:00N 35°17' E 139°41'0 0.3
2018-Apr-19 00:28N 35°17' E 139°41'4 8.3
2018-Apr-19 00:00N 35°16' E 139°45'5 9.7
2018-Apr-18 23:30N 35°11' E 139°44'610.8
2018-Apr-18 22:55N 35°05' E 139°41'510.7
2018-Apr-18 22:30N 35°02' E 139°37'132 5.8
2018-Apr-17 23:41N 34°51' E 136°57'2 9.3
2018-Apr-17 23:30N 34°53' E 136°58'0 0.0
2018-Apr-17 22:47N 34°53' E 136°58'1 2.6
2018-Apr-17 22:30N 34°52' E 136°58'1 2.1
2018-Apr-17 22:00N 34°51' E 136°57'1 2.2
2018-Apr-17 21:27N 34°50' E 136°57'137 3.3
2018-Apr-16 03:32N 35°05' E 139°42'0 4.5
2018-Apr-16 03:28N 35°05' E 139°43'2 5.0
2018-Apr-16 03:00N 35°07' E 139°44'2 4.7
2018-Apr-16 02:30N 35°09' E 139°45'3 5.3
2018-Apr-16 02:00N 35°12' E 139°46'2 4.0
2018-Apr-16 01:28N 35°14' E 139°46'2 4.5
2018-Apr-16 00:59N 35°16' E 139°46'2 4.9
2018-Apr-16 00:30N 35°18' E 139°44'2 4.3
2018-Apr-16 00:00N 35°20' E 139°42'3 4.9
2018-Apr-15 23:28N 35°22' E 139°42'2 5.1
2018-Apr-15 23:00N 35°25' E 139°42'1 1.3
2018-Apr-15 22:30N 35°25' E 139°41'0 0.2
2018-Apr-15 21:59N 35°25' E 139°41'0 0.3
2018-Apr-15 21:30N 35°25' E 139°41'0 0.2
2018-Apr-15 20:58N 35°25' E 139°41'0 0.0
2018-Apr-15 20:28N 35°25' E 139°41'0 0.2
2018-Apr-15 19:57N 35°25' E 139°41'2 4.0
2018-Apr-15 19:30N 35°24' E 139°42'4 7.8
2018-Apr-15 19:00N 35°20' E 139°42'3 5.4
2018-Apr-15 18:27N 35°17' E 139°41'0 0.0
2018-Apr-15 17:51N 35°17' E 139°41'0 0.0
2018-Apr-15 17:06N 35°17' E 139°41'0 0.0
2018-Apr-15 17:00N 35°17' E 139°41'0 0.0
2018-Apr-15 16:24N 35°17' E 139°41'0 0.0
2018-Apr-15 15:39N 35°17' E 139°41'0 0.0
2018-Apr-15 15:30N 35°17' E 139°41'0 0.0
2018-Apr-15 15:00N 35°17' E 139°41'0 0.0
2018-Apr-15 14:30N 35°17' E 139°41'0 0.0
2018-Apr-15 14:00N 35°17' E 139°41'0 0.0
2018-Apr-15 13:27N 35°17' E 139°41'0 0.0
2018-Apr-15 13:00N 35°17' E 139°41'0 0.0
2018-Apr-15 11:45N 35°17' E 139°41'0 0.0
2018-Apr-15 11:21N 35°17' E 139°41'0 0.0
2018-Apr-15 10:51N 35°17' E 139°41'0 0.0
2018-Apr-15 10:27N 35°17' E 139°41'0 0.0
2018-Apr-15 09:51N 35°17' E 139°41'0 0.0
2018-Apr-15 09:30N 35°17' E 139°41'0 0.0
2018-Apr-15 08:57N 35°17' E 139°41'0 0.0
2018-Apr-15 08:12N 35°17' E 139°41'0 0.0
2018-Apr-15 07:57N 35°17' E 139°41'0 0.0
2018-Apr-15 07:27N 35°17' E 139°41'0 0.0
2018-Apr-15 06:51N 35°17' E 139°41'0 0.0
2018-Apr-15 06:27N 35°17' E 139°41'0 0.0
2018-Apr-15 05:54N 35°17' E 139°41'0 0.0
2018-Apr-15 05:06N 35°17' E 139°41'0 0.0
2018-Apr-15 04:51N 35°17' E 139°41'0 0.0
2018-Apr-15 04:30N 35°17' E 139°41'0 0.0
2018-Apr-15 04:00N 35°17' E 139°41'0 0.0
2018-Apr-15 03:30N 35°17' E 139°41'0 0.0
2018-Apr-15 02:57N 35°17' E 139°41'0 0.0
2018-Apr-15 02:30N 35°17' E 139°41'0 0.0
2018-Apr-15 02:00N 35°17' E 139°41'0 0.0
2018-Apr-15 01:30N 35°17' E 139°41'0 0.0
2018-Apr-15 01:00N 35°17' E 139°41'0 0.0
2018-Apr-15 00:24N 35°17' E 139°41'0 0.0
2018-Apr-15 00:00N 35°17' E 139°41'0 0.0
2018-Apr-14 23:30N 35°17' E 139°41'0 0.0
2018-Apr-14 23:00N 35°17' E 139°41'0 0.0
2018-Apr-14 22:27N 35°17' E 139°41'0 0.0
2018-Apr-14 21:54N 35°17' E 139°41'0 0.0
2018-Apr-14 21:24N 35°17' E 139°41'0 0.0
2018-Apr-14 20:54N 35°17' E 139°41'0 0.0
2018-Apr-14 20:30N 35°17' E 139°41'0 0.0
2018-Apr-14 19:51N 35°17' E 139°41'0 0.0
2018-Apr-14 19:30N 35°17' E 139°41'0 0.0
2018-Apr-14 18:57N 35°17' E 139°41'0 0.0
2018-Apr-14 18:30N 35°17' E 139°41'0 0.0
2018-Apr-14 18:00N 35°17' E 139°41'0 0.0
2018-Apr-14 17:27N 35°17' E 139°41'0 0.0
2018-Apr-14 16:57N 35°17' E 139°41'0 0.0
2018-Apr-14 16:27N 35°17' E 139°41'0 0.0
2018-Apr-14 15:45N 35°17' E 139°41'0 0.0
2018-Apr-14 15:30N 35°17' E 139°41'0 0.0
2018-Apr-14 15:00N 35°17' E 139°41'0 0.0
2018-Apr-14 14:30N 35°17' E 139°41'0 0.0
2018-Apr-14 13:57N 35°17' E 139°41'0 0.0
2018-Apr-14 13:30N 35°17' E 139°41'0 0.0
2018-Apr-14 12:54N 35°17' E 139°41'0 0.0
2018-Apr-14 12:30N 35°17' E 139°41'0 0.0
2018-Apr-14 11:57N 35°17' E 139°41'0 0.0
2018-Apr-14 11:30N 35°17' E 139°41'0 0.0
2018-Apr-14 10:48N 35°17' E 139°41'0 0.0
2018-Apr-14 10:30N 35°17' E 139°41'0 0.0
2018-Apr-14 10:00N 35°17' E 139°41'0 0.0
2018-Apr-14 08:57N 35°17' E 139°41'0 0.0
2018-Apr-14 08:06N 35°17' E 139°41'0 0.0
2018-Apr-14 07:57N 35°17' E 139°41'0 0.0
2018-Apr-14 07:24N 35°17' E 139°41'0 0.0
2018-Apr-14 06:51N 35°17' E 139°41'0 0.0
2018-Apr-14 06:27N 35°17' E 139°41'0 0.0
2018-Apr-14 05:57N 35°17' E 139°41'0 0.0
2018-Apr-14 05:27N 35°17' E 139°41'0 0.0
2018-Apr-14 04:54N 35°17' E 139°41'0 0.0
2018-Apr-14 04:27N 35°17' E 139°41'0 0.0
2018-Apr-14 04:00N 35°17' E 139°41'0 0.0
2018-Apr-14 03:30N 35°17' E 139°41'0 0.0
2018-Apr-14 02:57N 35°17' E 139°41'0 0.0
2018-Apr-14 02:24N 35°17' E 139°41'0 0.0
2018-Apr-14 02:00N 35°17' E 139°41'0 0.0
2018-Apr-14 01:18N 35°17' E 139°41'0 0.0
2018-Apr-14 00:57N 35°17' E 139°41'0 0.0
2018-Apr-14 00:27N 35°17' E 139°41'0 0.0
2018-Apr-13 23:57N 35°17' E 139°41'0 0.0
2018-Apr-13 23:27N 35°17' E 139°41'0 0.0
2018-Apr-13 22:57N 35°17' E 139°41'0 0.0
2018-Apr-13 22:27N 35°17' E 139°41'0 0.0
2018-Apr-13 21:57N 35°17' E 139°41'0 0.0
2018-Apr-13 21:27N 35°17' E 139°41'0 0.0
2018-Apr-13 20:54N 35°17' E 139°41'0 0.0
2018-Apr-13 20:21N 35°17' E 139°41'0 0.0
2018-Apr-13 19:57N 35°17' E 139°41'0 0.0
2018-Apr-13 19:18N 35°17' E 139°41'0 0.0
2018-Apr-13 18:48N 35°17' E 139°41'0 0.0
2018-Apr-13 18:24N 35°17' E 139°41'0 0.0
2018-Apr-13 18:00N 35°17' E 139°41'0 0.0
2018-Apr-13 17:27N 35°17' E 139°41'0 0.0
2018-Apr-13 17:00N 35°17' E 139°41'0 0.0
2018-Apr-13 16:27N 35°17' E 139°41'0 0.0
2018-Apr-13 15:57N 35°17' E 139°41'0 0.0
2018-Apr-13 15:30N 35°17' E 139°41'0 0.0
2018-Apr-13 14:57N 35°17' E 139°41'0 0.0
2018-Apr-13 14:15N 35°17' E 139°41'0 0.0
2018-Apr-13 13:57N 35°17' E 139°41'0 0.0
2018-Apr-13 13:27N 35°17' E 139°41'0 0.0
2018-Apr-13 12:51N 35°17' E 139°41'0 0.0
2018-Apr-13 12:27N 35°17' E 139°41'0 0.0
2018-Apr-13 12:00N 35°17' E 139°41'0 0.0
2018-Apr-13 11:27N 35°17' E 139°41'0 0.0
2018-Apr-13 10:45N 35°17' E 139°41'0 0.0
2018-Apr-13 10:15N 35°17' E 139°41'0 0.0
2018-Apr-13 09:57N 35°17' E 139°41'0 0.0
2018-Apr-13 09:27N 35°17' E 139°41'0 0.0
2018-Apr-13 08:57N 35°17' E 139°41'0 0.0
2018-Apr-13 08:30N 35°17' E 139°41'0 0.0
2018-Apr-13 08:00N 35°17' E 139°41'0 0.0
2018-Apr-13 07:27N 35°17' E 139°41'0 0.0
2018-Apr-13 06:57N 35°17' E 139°41'0 0.0
2018-Apr-13 06:27N 35°17' E 139°41'0 0.0
2018-Apr-13 05:57N 35°17' E 139°41'0 0.0
2018-Apr-13 05:21N 35°17' E 139°41'0 0.0
2018-Apr-13 05:00N 35°17' E 139°41'0 0.0
2018-Apr-13 04:30N 35°17' E 139°41'0 0.0
2018-Apr-13 03:51N 35°17' E 139°41'0 0.0
2018-Apr-13 03:27N 35°17' E 139°41'0 0.0
2018-Apr-13 02:55N 35°17' E 139°41'0 0.0
2018-Apr-13 02:28N 35°17' E 139°41'0 0.0
2018-Apr-13 01:55N 35°17' E 139°41'  

Dump ship's entire track history